sensor_id;sensor_type;location;lat;lon;timestamp;P1;durP1;ratioP1;P2;durP2;ratioP2
15216;SDS011;7711;46.634;14.318;2022-12-29T00:02:13;21.80;;;12.17;;
15216;SDS011;7711;46.634;14.318;2022-12-29T00:04:41;19.13;;;11.70;;
15216;SDS011;7711;46.634;14.318;2022-12-29T00:07:09;39.90;;;13.67;;
15216;SDS011;7711;46.634;14.318;2022-12-29T00:09:37;31.33;;;12.77;;
15216;SDS011;7711;46.634;14.318;2022-12-29T00:12:04;27.27;;;13.40;;
15216;SDS011;7711;46.634;14.318;2022-12-29T00:14:31;22.80;;;13.50;;
15216;SDS011;7711;46.634;14.318;2022-12-29T00:17:16;29.83;;;13.70;;
15216;SDS011;7711;46.634;14.318;2022-12-29T00:19:43;28.87;;;13.53;;
15216;SDS011;7711;46.634;14.318;2022-12-29T00:22:28;26.80;;;13.57;;
15216;SDS011;7711;46.634;14.318;2022-12-29T00:25:13;31.87;;;13.90;;
15216;SDS011;7711;46.634;14.318;2022-12-29T00:27:57;31.90;;;13.57;;
15216;SDS011;7711;46.634;14.318;2022-12-29T00:30:41;32.97;;;13.23;;
15216;SDS011;7711;46.634;14.318;2022-12-29T00:33:26;36.57;;;12.17;;
15216;SDS011;7711;46.634;14.318;2022-12-29T00:36:14;31.30;;;13.13;;
15216;SDS011;7711;46.634;14.318;2022-12-29T00:38:45;34.87;;;12.67;;
15216;SDS011;7711;46.634;14.318;2022-12-29T00:41:33;24.40;;;12.67;;
15216;SDS011;7711;46.634;14.318;2022-12-29T00:44:17;26.90;;;12.50;;
15216;SDS011;7711;46.634;14.318;2022-12-29T00:46:44;37.90;;;13.23;;
15216;SDS011;7711;46.634;14.318;2022-12-29T00:49:12;44.03;;;13.50;;
15216;SDS011;7711;46.634;14.318;2022-12-29T00:51:59;26.57;;;12.33;;
15216;SDS011;7711;46.634;14.318;2022-12-29T00:54:30;35.70;;;14.30;;
15216;SDS011;7711;46.634;14.318;2022-12-29T00:56:59;25.87;;;11.67;;
15216;SDS011;7711;46.634;14.318;2022-12-29T00:59:26;30.33;;;12.57;;
15216;SDS011;7711;46.634;14.318;2022-12-29T01:01:54;43.37;;;14.40;;
15216;SDS011;7711;46.634;14.318;2022-12-29T01:04:23;28.13;;;13.57;;
15216;SDS011;7711;46.634;14.318;2022-12-29T01:06:51;36.17;;;12.93;;
15216;SDS011;7711;46.634;14.318;2022-12-29T01:09:19;34.27;;;12.70;;
15216;SDS011;7711;46.634;14.318;2022-12-29T01:12:05;22.23;;;12.67;;
15216;SDS011;7711;46.634;14.318;2022-12-29T01:14:33;23.90;;;12.73;;
15216;SDS011;7711;46.634;14.318;2022-12-29T01:17:00;24.57;;;12.60;;
15216;SDS011;7711;46.634;14.318;2022-12-29T01:19:27;29.17;;;13.10;;
15216;SDS011;7711;46.634;14.318;2022-12-29T01:21:54;24.50;;;13.33;;
15216;SDS011;7711;46.634;14.318;2022-12-29T01:24:21;34.10;;;15.60;;
15216;SDS011;7711;46.634;14.318;2022-12-29T01:26:49;21.73;;;13.43;;
15216;SDS011;7711;46.634;14.318;2022-12-29T01:29:17;25.70;;;14.73;;
15216;SDS011;7711;46.634;14.318;2022-12-29T01:31:44;38.37;;;13.93;;
15216;SDS011;7711;46.634;14.318;2022-12-29T01:34:12;24.33;;;13.97;;
15216;SDS011;7711;46.634;14.318;2022-12-29T01:36:39;28.83;;;13.13;;
15216;SDS011;7711;46.634;14.318;2022-12-29T01:39:06;24.63;;;13.13;;
15216;SDS011;7711;46.634;14.318;2022-12-29T01:41:33;25.93;;;13.93;;
15216;SDS011;7711;46.634;14.318;2022-12-29T01:44:00;21.43;;;12.63;;
15216;SDS011;7711;46.634;14.318;2022-12-29T01:46:31;24.77;;;12.87;;
15216;SDS011;7711;46.634;14.318;2022-12-29T01:49:03;25.53;;;13.83;;
15216;SDS011;7711;46.634;14.318;2022-12-29T01:51:35;21.30;;;12.63;;
15216;SDS011;7711;46.634;14.318;2022-12-29T01:54:05;25.90;;;13.10;;
15216;SDS011;7711;46.634;14.318;2022-12-29T01:56:37;19.47;;;11.93;;
15216;SDS011;7711;46.634;14.318;2022-12-29T01:59:04;18.27;;;13.07;;
15216;SDS011;7711;46.634;14.318;2022-12-29T02:01:36;20.67;;;14.10;;
15216;SDS011;7711;46.634;14.318;2022-12-29T02:04:04;21.80;;;12.87;;
15216;SDS011;7711;46.634;14.318;2022-12-29T02:06:31;19.63;;;12.00;;
15216;SDS011;7711;46.634;14.318;2022-12-29T02:09:03;21.83;;;12.73;;
15216;SDS011;7711;46.634;14.318;2022-12-29T02:11:30;19.37;;;12.47;;
15216;SDS011;7711;46.634;14.318;2022-12-29T02:13:57;18.37;;;11.70;;
15216;SDS011;7711;46.634;14.318;2022-12-29T02:16:29;20.23;;;12.27;;
15216;SDS011;7711;46.634;14.318;2022-12-29T02:19:10;20.97;;;13.10;;
15216;SDS011;7711;46.634;14.318;2022-12-29T02:22:10;18.63;;;12.73;;
15216;SDS011;7711;46.634;14.318;2022-12-29T02:27:50;27.17;;;12.20;;
15216;SDS011;7711;46.634;14.318;2022-12-29T02:30:39;17.73;;;12.80;;
15216;SDS011;7711;46.634;14.318;2022-12-29T02:33:13;26.67;;;13.60;;
15216;SDS011;7711;46.634;14.318;2022-12-29T02:35:54;21.03;;;12.10;;
15216;SDS011;7711;46.634;14.318;2022-12-29T02:38:29;17.63;;;12.00;;
15216;SDS011;7711;46.634;14.318;2022-12-29T02:41:07;19.60;;;13.00;;
15216;SDS011;7711;46.634;14.318;2022-12-29T02:43:44;21.47;;;13.47;;
15216;SDS011;7711;46.634;14.318;2022-12-29T02:46:19;25.70;;;13.57;;
15216;SDS011;7711;46.634;14.318;2022-12-29T02:48:54;23.50;;;13.63;;
15216;SDS011;7711;46.634;14.318;2022-12-29T02:51:31;20.67;;;13.47;;
15216;SDS011;7711;46.634;14.318;2022-12-29T02:54:01;23.43;;;13.30;;
15216;SDS011;7711;46.634;14.318;2022-12-29T02:56:46;23.40;;;13.27;;
15216;SDS011;7711;46.634;14.318;2022-12-29T02:59:13;27.77;;;14.70;;
15216;SDS011;7711;46.634;14.318;2022-12-29T03:01:45;25.47;;;12.00;;
15216;SDS011;7711;46.634;14.318;2022-12-29T03:04:45;29.13;;;13.43;;
15216;SDS011;7711;46.634;14.318;2022-12-29T03:07:29;17.53;;;11.93;;
15216;SDS011;7711;46.634;14.318;2022-12-29T03:10:07;20.67;;;11.83;;
15216;SDS011;7711;46.634;14.318;2022-12-29T03:12:42;16.30;;;11.17;;
15216;SDS011;7711;46.634;14.318;2022-12-29T03:15:33;16.80;;;11.37;;
15216;SDS011;7711;46.634;14.318;2022-12-29T03:18:25;15.73;;;11.20;;
15216;SDS011;7711;46.634;14.318;2022-12-29T03:21:00;17.13;;;11.93;;
15216;SDS011;7711;46.634;14.318;2022-12-29T03:23:31;18.00;;;12.43;;
15216;SDS011;7711;46.634;14.318;2022-12-29T03:26:01;21.57;;;12.97;;
15216;SDS011;7711;46.634;14.318;2022-12-29T03:28:33;15.70;;;10.63;;
15216;SDS011;7711;46.634;14.318;2022-12-29T03:31:04;23.87;;;12.20;;
15216;SDS011;7711;46.634;14.318;2022-12-29T03:33:36;21.37;;;12.43;;
15216;SDS011;7711;46.634;14.318;2022-12-29T03:36:05;20.10;;;11.37;;
15216;SDS011;7711;46.634;14.318;2022-12-29T03:38:37;26.63;;;13.43;;
15216;SDS011;7711;46.634;14.318;2022-12-29T03:41:10;39.33;;;16.77;;
15216;SDS011;7711;46.634;14.318;2022-12-29T03:43:40;23.13;;;12.03;;
15216;SDS011;7711;46.634;14.318;2022-12-29T03:46:08;28.30;;;12.73;;
15216;SDS011;7711;46.634;14.318;2022-12-29T03:48:36;20.63;;;11.30;;
15216;SDS011;7711;46.634;14.318;2022-12-29T03:51:04;25.57;;;10.77;;
15216;SDS011;7711;46.634;14.318;2022-12-29T03:53:31;23.20;;;11.33;;
15216;SDS011;7711;46.634;14.318;2022-12-29T03:55:58;24.27;;;11.03;;
15216;SDS011;7711;46.634;14.318;2022-12-29T03:58:26;22.00;;;11.00;;
15216;SDS011;7711;46.634;14.318;2022-12-29T04:00:53;25.63;;;11.27;;
15216;SDS011;7711;46.634;14.318;2022-12-29T04:03:20;30.13;;;11.67;;
15216;SDS011;7711;46.634;14.318;2022-12-29T04:05:49;35.00;;;12.60;;
15216;SDS011;7711;46.634;14.318;2022-12-29T04:08:16;24.00;;;11.63;;
15216;SDS011;7711;46.634;14.318;2022-12-29T04:10:44;57.33;;;13.70;;
15216;SDS011;7711;46.634;14.318;2022-12-29T04:13:11;15.77;;;10.77;;
15216;SDS011;7711;46.634;14.318;2022-12-29T04:15:38;27.43;;;11.27;;
15216;SDS011;7711;46.634;14.318;2022-12-29T04:18:07;29.07;;;11.60;;
15216;SDS011;7711;46.634;14.318;2022-12-29T04:20:34;20.63;;;12.27;;
15216;SDS011;7711;46.634;14.318;2022-12-29T04:23:20;19.27;;;11.30;;
15216;SDS011;7711;46.634;14.318;2022-12-29T04:25:48;20.63;;;10.80;;
15216;SDS011;7711;46.634;14.318;2022-12-29T04:28:15;44.87;;;12.57;;
15216;SDS011;7711;46.634;14.318;2022-12-29T04:30:43;22.57;;;11.60;;
15216;SDS011;7711;46.634;14.318;2022-12-29T04:33:11;25.43;;;12.23;;
15216;SDS011;7711;46.634;14.318;2022-12-29T04:35:39;25.00;;;11.63;;
15216;SDS011;7711;46.634;14.318;2022-12-29T04:38:06;27.07;;;11.77;;
15216;SDS011;7711;46.634;14.318;2022-12-29T04:40:34;33.70;;;12.30;;
15216;SDS011;7711;46.634;14.318;2022-12-29T04:43:01;30.70;;;12.60;;
15216;SDS011;7711;46.634;14.318;2022-12-29T04:45:28;18.63;;;11.10;;
15216;SDS011;7711;46.634;14.318;2022-12-29T04:47:55;23.57;;;11.20;;
15216;SDS011;7711;46.634;14.318;2022-12-29T04:50:22;18.17;;;11.33;;
15216;SDS011;7711;46.634;14.318;2022-12-29T04:52:49;25.17;;;11.57;;
15216;SDS011;7711;46.634;14.318;2022-12-29T04:55:17;18.17;;;10.73;;
15216;SDS011;7711;46.634;14.318;2022-12-29T04:57:45;30.97;;;11.73;;
15216;SDS011;7711;46.634;14.318;2022-12-29T05:00:12;24.20;;;12.90;;
15216;SDS011;7711;46.634;14.318;2022-12-29T05:02:40;25.17;;;11.00;;
15216;SDS011;7711;46.634;14.318;2022-12-29T05:05:07;31.87;;;12.77;;
15216;SDS011;7711;46.634;14.318;2022-12-29T05:07:35;32.27;;;12.63;;
15216;SDS011;7711;46.634;14.318;2022-12-29T05:10:02;21.40;;;11.20;;
15216;SDS011;7711;46.634;14.318;2022-12-29T05:12:30;30.80;;;10.60;;
15216;SDS011;7711;46.634;14.318;2022-12-29T05:14:59;27.30;;;11.40;;
15216;SDS011;7711;46.634;14.318;2022-12-29T05:17:27;21.53;;;10.00;;
15216;SDS011;7711;46.634;14.318;2022-12-29T05:19:55;27.27;;;11.03;;
15216;SDS011;7711;46.634;14.318;2022-12-29T05:22:22;21.67;;;11.20;;
15216;SDS011;7711;46.634;14.318;2022-12-29T05:24:49;21.13;;;11.20;;
15216;SDS011;7711;46.634;14.318;2022-12-29T05:27:16;37.37;;;12.13;;
15216;SDS011;7711;46.634;14.318;2022-12-29T05:29:43;23.57;;;10.90;;
15216;SDS011;7711;46.634;14.318;2022-12-29T05:32:12;25.37;;;10.90;;
15216;SDS011;7711;46.634;14.318;2022-12-29T05:34:39;29.03;;;12.03;;
15216;SDS011;7711;46.634;14.318;2022-12-29T05:37:06;76.63;;;13.77;;
15216;SDS011;7711;46.634;14.318;2022-12-29T05:39:33;33.97;;;12.73;;
15216;SDS011;7711;46.634;14.318;2022-12-29T05:42:00;56.40;;;15.47;;
15216;SDS011;7711;46.634;14.318;2022-12-29T05:44:27;50.77;;;12.47;;
15216;SDS011;7711;46.634;14.318;2022-12-29T05:46:54;34.97;;;12.47;;
15216;SDS011;7711;46.634;14.318;2022-12-29T05:49:22;21.67;;;10.90;;
15216;SDS011;7711;46.634;14.318;2022-12-29T05:51:49;75.80;;;14.53;;
15216;SDS011;7711;46.634;14.318;2022-12-29T05:54:16;63.10;;;16.03;;
15216;SDS011;7711;46.634;14.318;2022-12-29T05:56:43;48.97;;;13.90;;
15216;SDS011;7711;46.634;14.318;2022-12-29T05:59:10;51.40;;;13.27;;
15216;SDS011;7711;46.634;14.318;2022-12-29T06:01:37;39.57;;;12.50;;
15216;SDS011;7711;46.634;14.318;2022-12-29T06:04:04;27.93;;;10.67;;
15216;SDS011;7711;46.634;14.318;2022-12-29T06:06:33;54.97;;;12.60;;
15216;SDS011;7711;46.634;14.318;2022-12-29T06:09:00;30.03;;;12.13;;
15216;SDS011;7711;46.634;14.318;2022-12-29T06:11:27;33.80;;;11.70;;
15216;SDS011;7711;46.634;14.318;2022-12-29T06:13:54;33.83;;;12.43;;
15216;SDS011;7711;46.634;14.318;2022-12-29T06:16:21;44.10;;;12.60;;
15216;SDS011;7711;46.634;14.318;2022-12-29T06:18:48;23.83;;;11.77;;
15216;SDS011;7711;46.634;14.318;2022-12-29T06:21:15;23.63;;;13.63;;
15216;SDS011;7711;46.634;14.318;2022-12-29T06:23:43;33.30;;;12.40;;
15216;SDS011;7711;46.634;14.318;2022-12-29T06:26:10;27.60;;;11.90;;
15216;SDS011;7711;46.634;14.318;2022-12-29T06:28:37;28.40;;;11.40;;
15216;SDS011;7711;46.634;14.318;2022-12-29T06:31:04;37.37;;;11.43;;
15216;SDS011;7711;46.634;14.318;2022-12-29T06:33:34;44.37;;;13.47;;
15216;SDS011;7711;46.634;14.318;2022-12-29T06:36:01;37.47;;;12.60;;
15216;SDS011;7711;46.634;14.318;2022-12-29T06:38:28;50.97;;;13.43;;
15216;SDS011;7711;46.634;14.318;2022-12-29T06:40:57;29.37;;;11.60;;
15216;SDS011;7711;46.634;14.318;2022-12-29T06:43:24;32.67;;;13.60;;
15216;SDS011;7711;46.634;14.318;2022-12-29T06:45:51;42.70;;;13.00;;
15216;SDS011;7711;46.634;14.318;2022-12-29T06:48:18;34.33;;;13.70;;
15216;SDS011;7711;46.634;14.318;2022-12-29T06:50:45;40.47;;;15.07;;
15216;SDS011;7711;46.634;14.318;2022-12-29T06:53:12;42.43;;;13.87;;
15216;SDS011;7711;46.634;14.318;2022-12-29T06:55:39;37.33;;;13.50;;
15216;SDS011;7711;46.634;14.318;2022-12-29T06:58:08;30.27;;;14.00;;
15216;SDS011;7711;46.634;14.318;2022-12-29T07:00:35;33.77;;;13.80;;
15216;SDS011;7711;46.634;14.318;2022-12-29T07:03:02;43.83;;;15.47;;
15216;SDS011;7711;46.634;14.318;2022-12-29T07:05:29;27.03;;;16.33;;
15216;SDS011;7711;46.634;14.318;2022-12-29T07:07:57;36.80;;;13.70;;
15216;SDS011;7711;46.634;14.318;2022-12-29T07:10:25;25.80;;;13.63;;
15216;SDS011;7711;46.634;14.318;2022-12-29T07:12:52;28.30;;;12.87;;
15216;SDS011;7711;46.634;14.318;2022-12-29T07:15:21;19.57;;;13.37;;
15216;SDS011;7711;46.634;14.318;2022-12-29T07:17:49;28.10;;;13.07;;
15216;SDS011;7711;46.634;14.318;2022-12-29T07:20:16;20.27;;;12.07;;
15216;SDS011;7711;46.634;14.318;2022-12-29T07:22:43;22.17;;;12.63;;
15216;SDS011;7711;46.634;14.318;2022-12-29T07:25:12;19.53;;;13.70;;
15216;SDS011;7711;46.634;14.318;2022-12-29T07:27:39;20.03;;;12.43;;
15216;SDS011;7711;46.634;14.318;2022-12-29T07:30:06;43.57;;;14.73;;
15216;SDS011;7711;46.634;14.318;2022-12-29T07:32:35;32.97;;;12.53;;
15216;SDS011;7711;46.634;14.318;2022-12-29T07:35:02;36.97;;;14.07;;
15216;SDS011;7711;46.634;14.318;2022-12-29T07:37:30;37.00;;;14.30;;
15216;SDS011;7711;46.634;14.318;2022-12-29T07:39:57;27.43;;;13.27;;
15216;SDS011;7711;46.634;14.318;2022-12-29T07:42:24;51.23;;;14.90;;
15216;SDS011;7711;46.634;14.318;2022-12-29T07:44:51;29.03;;;13.43;;
15216;SDS011;7711;46.634;14.318;2022-12-29T07:47:18;31.63;;;14.27;;
15216;SDS011;7711;46.634;14.318;2022-12-29T07:49:46;21.50;;;12.40;;
15216;SDS011;7711;46.634;14.318;2022-12-29T07:52:13;25.40;;;13.33;;
15216;SDS011;7711;46.634;14.318;2022-12-29T07:54:40;21.33;;;13.17;;
15216;SDS011;7711;46.634;14.318;2022-12-29T07:57:07;21.27;;;12.77;;
15216;SDS011;7711;46.634;14.318;2022-12-29T07:59:34;20.33;;;12.53;;
15216;SDS011;7711;46.634;14.318;2022-12-29T08:02:01;20.27;;;13.23;;
15216;SDS011;7711;46.634;14.318;2022-12-29T08:04:29;22.37;;;12.70;;
15216;SDS011;7711;46.634;14.318;2022-12-29T08:06:57;32.90;;;13.53;;
15216;SDS011;7711;46.634;14.318;2022-12-29T08:09:25;25.93;;;13.70;;
15216;SDS011;7711;46.634;14.318;2022-12-29T08:11:53;22.77;;;14.43;;
15216;SDS011;7711;46.634;14.318;2022-12-29T08:14:20;21.90;;;13.17;;
15216;SDS011;7711;46.634;14.318;2022-12-29T08:16:47;17.80;;;13.03;;
15216;SDS011;7711;46.634;14.318;2022-12-29T08:19:15;19.23;;;13.37;;
15216;SDS011;7711;46.634;14.318;2022-12-29T08:21:42;16.93;;;12.40;;
15216;SDS011;7711;46.634;14.318;2022-12-29T08:24:11;21.03;;;12.83;;
15216;SDS011;7711;46.634;14.318;2022-12-29T08:26:38;21.80;;;14.00;;
15216;SDS011;7711;46.634;14.318;2022-12-29T08:29:05;26.03;;;13.37;;
15216;SDS011;7711;46.634;14.318;2022-12-29T08:31:32;19.80;;;13.20;;
15216;SDS011;7711;46.634;14.318;2022-12-29T08:33:59;18.47;;;11.57;;
15216;SDS011;7711;46.634;14.318;2022-12-29T08:36:28;15.97;;;11.27;;
15216;SDS011;7711;46.634;14.318;2022-12-29T08:38:56;18.37;;;11.60;;
15216;SDS011;7711;46.634;14.318;2022-12-29T08:41:24;18.60;;;11.63;;
15216;SDS011;7711;46.634;14.318;2022-12-29T08:43:51;20.33;;;12.37;;
15216;SDS011;7711;46.634;14.318;2022-12-29T08:46:18;23.00;;;12.60;;
15216;SDS011;7711;46.634;14.318;2022-12-29T08:48:45;21.93;;;12.40;;
15216;SDS011;7711;46.634;14.318;2022-12-29T08:51:12;21.47;;;12.17;;
15216;SDS011;7711;46.634;14.318;2022-12-29T08:53:40;36.33;;;13.13;;
15216;SDS011;7711;46.634;14.318;2022-12-29T08:56:08;49.23;;;13.50;;
15216;SDS011;7711;46.634;14.318;2022-12-29T08:58:37;41.80;;;13.03;;
15216;SDS011;7711;46.634;14.318;2022-12-29T09:01:04;50.50;;;25.30;;
15216;SDS011;7711;46.634;14.318;2022-12-29T09:03:31;62.27;;;23.63;;
15216;SDS011;7711;46.634;14.318;2022-12-29T09:05:59;51.10;;;15.40;;
15216;SDS011;7711;46.634;14.318;2022-12-29T09:08:26;70.13;;;35.97;;
15216;SDS011;7711;46.634;14.318;2022-12-29T09:10:53;41.30;;;17.33;;
15216;SDS011;7711;46.634;14.318;2022-12-29T09:13:20;42.40;;;21.37;;
15216;SDS011;7711;46.634;14.318;2022-12-29T09:15:48;27.23;;;14.10;;
15216;SDS011;7711;46.634;14.318;2022-12-29T09:18:23;23.50;;;14.87;;
15216;SDS011;7711;46.634;14.318;2022-12-29T09:20:55;22.70;;;13.67;;
15216;SDS011;7711;46.634;14.318;2022-12-29T09:23:22;28.87;;;13.57;;
15216;SDS011;7711;46.634;14.318;2022-12-29T09:25:49;19.13;;;13.03;;
15216;SDS011;7711;46.634;14.318;2022-12-29T09:28:16;20.87;;;13.53;;
15216;SDS011;7711;46.634;14.318;2022-12-29T09:30:43;21.30;;;13.40;;
15216;SDS011;7711;46.634;14.318;2022-12-29T09:33:12;16.97;;;12.37;;
15216;SDS011;7711;46.634;14.318;2022-12-29T09:35:41;23.57;;;17.17;;
15216;SDS011;7711;46.634;14.318;2022-12-29T09:38:09;26.47;;;18.50;;
15216;SDS011;7711;46.634;14.318;2022-12-29T09:40:36;24.30;;;14.60;;
15216;SDS011;7711;46.634;14.318;2022-12-29T09:43:10;24.93;;;13.70;;
15216;SDS011;7711;46.634;14.318;2022-12-29T09:45:59;25.87;;;12.97;;
15216;SDS011;7711;46.634;14.318;2022-12-29T09:48:36;20.93;;;13.57;;
15216;SDS011;7711;46.634;14.318;2022-12-29T09:51:08;18.93;;;13.07;;
15216;SDS011;7711;46.634;14.318;2022-12-29T09:53:40;18.27;;;13.40;;
15216;SDS011;7711;46.634;14.318;2022-12-29T09:56:11;15.47;;;12.13;;
15216;SDS011;7711;46.634;14.318;2022-12-29T09:58:42;18.53;;;11.77;;
15216;SDS011;7711;46.634;14.318;2022-12-29T10:01:17;16.67;;;10.90;;
15216;SDS011;7711;46.634;14.318;2022-12-29T10:03:54;14.80;;;10.30;;
15216;SDS011;7711;46.634;14.318;2022-12-29T10:06:24;11.97;;;8.60;;
15216;SDS011;7711;46.634;14.318;2022-12-29T10:08:56;12.97;;;9.67;;
15216;SDS011;7711;46.634;14.318;2022-12-29T10:11:31;20.13;;;9.73;;
15216;SDS011;7711;46.634;14.318;2022-12-29T10:14:13;13.67;;;9.20;;
15216;SDS011;7711;46.634;14.318;2022-12-29T10:16:54;12.20;;;8.97;;
15216;SDS011;7711;46.634;14.318;2022-12-29T10:19:38;15.23;;;10.17;;
15216;SDS011;7711;46.634;14.318;2022-12-29T10:22:15;15.40;;;9.13;;
15216;SDS011;7711;46.634;14.318;2022-12-29T10:24:48;16.77;;;9.60;;
15216;SDS011;7711;46.634;14.318;2022-12-29T10:27:17;14.27;;;9.63;;
15216;SDS011;7711;46.634;14.318;2022-12-29T10:29:45;18.30;;;10.70;;
15216;SDS011;7711;46.634;14.318;2022-12-29T10:32:20;18.47;;;10.50;;
15216;SDS011;7711;46.634;14.318;2022-12-29T10:34:53;16.90;;;11.87;;
15216;SDS011;7711;46.634;14.318;2022-12-29T10:37:24;17.30;;;12.13;;
15216;SDS011;7711;46.634;14.318;2022-12-29T10:39:57;16.30;;;11.67;;
15216;SDS011;7711;46.634;14.318;2022-12-29T10:42:26;16.23;;;12.23;;
15216;SDS011;7711;46.634;14.318;2022-12-29T10:44:54;13.80;;;10.90;;
15216;SDS011;7711;46.634;14.318;2022-12-29T10:47:23;17.77;;;11.80;;
15216;SDS011;7711;46.634;14.318;2022-12-29T10:49:55;18.20;;;12.97;;
15216;SDS011;7711;46.634;14.318;2022-12-29T10:52:23;17.47;;;12.40;;
15216;SDS011;7711;46.634;14.318;2022-12-29T10:54:53;17.20;;;12.37;;
15216;SDS011;7711;46.634;14.318;2022-12-29T10:57:24;16.90;;;12.00;;
15216;SDS011;7711;46.634;14.318;2022-12-29T10:59:53;16.40;;;11.37;;
15216;SDS011;7711;46.634;14.318;2022-12-29T11:02:38;17.17;;;11.70;;
15216;SDS011;7711;46.634;14.318;2022-12-29T11:05:22;17.33;;;13.10;;
15216;SDS011;7711;46.634;14.318;2022-12-29T11:07:56;16.33;;;13.17;;
15216;SDS011;7711;46.634;14.318;2022-12-29T11:10:29;21.33;;;14.13;;
15216;SDS011;7711;46.634;14.318;2022-12-29T11:13:03;21.73;;;14.47;;
15216;SDS011;7711;46.634;14.318;2022-12-29T11:15:40;18.83;;;13.73;;
15216;SDS011;7711;46.634;14.318;2022-12-29T11:18:17;18.03;;;13.37;;
15216;SDS011;7711;46.634;14.318;2022-12-29T11:20:48;22.10;;;14.90;;
15216;SDS011;7711;46.634;14.318;2022-12-29T11:23:27;21.03;;;14.93;;
15216;SDS011;7711;46.634;14.318;2022-12-29T11:26:07;16.60;;;12.80;;
15216;SDS011;7711;46.634;14.318;2022-12-29T11:28:42;17.57;;;13.47;;
15216;SDS011;7711;46.634;14.318;2022-12-29T11:31:12;15.00;;;12.27;;
15216;SDS011;7711;46.634;14.318;2022-12-29T11:33:42;17.27;;;13.07;;
15216;SDS011;7711;46.634;14.318;2022-12-29T11:36:13;19.50;;;14.37;;
15216;SDS011;7711;46.634;14.318;2022-12-29T11:38:46;19.00;;;14.70;;
15216;SDS011;7711;46.634;14.318;2022-12-29T11:41:19;22.50;;;15.33;;
15216;SDS011;7711;46.634;14.318;2022-12-29T11:43:49;20.03;;;14.47;;
15216;SDS011;7711;46.634;14.318;2022-12-29T11:46:17;21.30;;;14.83;;
15216;SDS011;7711;46.634;14.318;2022-12-29T11:48:46;22.03;;;14.57;;
15216;SDS011;7711;46.634;14.318;2022-12-29T11:51:22;22.90;;;15.50;;
15216;SDS011;7711;46.634;14.318;2022-12-29T11:53:52;23.37;;;14.57;;
15216;SDS011;7711;46.634;14.318;2022-12-29T11:56:32;18.77;;;14.03;;
15216;SDS011;7711;46.634;14.318;2022-12-29T12:05:01;20.10;;;14.90;;
15216;SDS011;7711;46.634;14.318;2022-12-29T12:07:39;29.87;;;20.03;;
15216;SDS011;7711;46.634;14.318;2022-12-29T12:10:14;27.90;;;19.27;;
15216;SDS011;7711;46.634;14.318;2022-12-29T12:12:47;22.20;;;15.97;;
15216;SDS011;7711;46.634;14.318;2022-12-29T12:15:19;19.03;;;14.80;;
15216;SDS011;7711;46.634;14.318;2022-12-29T12:17:51;21.87;;;15.30;;
15216;SDS011;7711;46.634;14.318;2022-12-29T12:20:21;20.13;;;15.00;;
15216;SDS011;7711;46.634;14.318;2022-12-29T12:22:58;21.17;;;15.10;;
15216;SDS011;7711;46.634;14.318;2022-12-29T12:25:34;24.30;;;14.90;;
15216;SDS011;7711;46.634;14.318;2022-12-29T12:28:05;18.40;;;14.27;;
15216;SDS011;7711;46.634;14.318;2022-12-29T12:30:39;21.67;;;15.00;;
15216;SDS011;7711;46.634;14.318;2022-12-29T12:33:13;21.60;;;15.57;;
15216;SDS011;7711;46.634;14.318;2022-12-29T12:35:48;19.33;;;14.83;;
15216;SDS011;7711;46.634;14.318;2022-12-29T12:38:27;19.80;;;15.63;;
15216;SDS011;7711;46.634;14.318;2022-12-29T12:41:05;19.80;;;15.47;;
15216;SDS011;7711;46.634;14.318;2022-12-29T12:43:43;21.93;;;15.97;;
15216;SDS011;7711;46.634;14.318;2022-12-29T12:46:17;20.40;;;14.80;;
15216;SDS011;7711;46.634;14.318;2022-12-29T12:48:59;22.00;;;14.27;;
15216;SDS011;7711;46.634;14.318;2022-12-29T12:51:41;20.53;;;14.30;;
15216;SDS011;7711;46.634;14.318;2022-12-29T12:54:29;17.70;;;13.33;;
15216;SDS011;7711;46.634;14.318;2022-12-29T12:57:10;14.70;;;12.37;;
15216;SDS011;7711;46.634;14.318;2022-12-29T12:59:46;15.70;;;12.17;;
15216;SDS011;7711;46.634;14.318;2022-12-29T13:02:24;20.80;;;12.90;;
15216;SDS011;7711;46.634;14.318;2022-12-29T13:05:19;16.87;;;12.63;;
15216;SDS011;7711;46.634;14.318;2022-12-29T13:07:59;14.03;;;11.97;;
15216;SDS011;7711;46.634;14.318;2022-12-29T13:10:45;12.37;;;11.00;;
15216;SDS011;7711;46.634;14.318;2022-12-29T13:16:12;15.33;;;11.70;;
15216;SDS011;7711;46.634;14.318;2022-12-29T13:18:49;13.97;;;11.47;;
15216;SDS011;7711;46.634;14.318;2022-12-29T13:21:24;12.33;;;11.00;;
15216;SDS011;7711;46.634;14.318;2022-12-29T13:23:59;14.30;;;10.87;;
15216;SDS011;7711;46.634;14.318;2022-12-29T13:26:34;12.23;;;10.77;;
15216;SDS011;7711;46.634;14.318;2022-12-29T13:29:08;13.80;;;10.90;;
15216;SDS011;7711;46.634;14.318;2022-12-29T13:31:43;12.60;;;10.77;;
15216;SDS011;7711;46.634;14.318;2022-12-29T13:34:20;13.57;;;12.03;;
15216;SDS011;7711;46.634;14.318;2022-12-29T13:36:58;12.63;;;11.30;;
15216;SDS011;7711;46.634;14.318;2022-12-29T13:39:28;13.33;;;11.87;;
15216;SDS011;7711;46.634;14.318;2022-12-29T13:42:01;19.03;;;12.33;;
15216;SDS011;7711;46.634;14.318;2022-12-29T13:44:31;12.97;;;11.43;;
15216;SDS011;7711;46.634;14.318;2022-12-29T13:47:02;14.03;;;11.77;;
15216;SDS011;7711;46.634;14.318;2022-12-29T13:49:39;15.80;;;11.37;;
15216;SDS011;7711;46.634;14.318;2022-12-29T13:52:09;13.47;;;10.97;;
15216;SDS011;7711;46.634;14.318;2022-12-29T13:54:40;15.83;;;12.40;;
15216;SDS011;7711;46.634;14.318;2022-12-29T13:57:26;17.07;;;13.30;;
15216;SDS011;7711;46.634;14.318;2022-12-29T14:00:02;15.60;;;11.90;;
15216;SDS011;7711;46.634;14.318;2022-12-29T14:02:40;15.63;;;11.50;;
15216;SDS011;7711;46.634;14.318;2022-12-29T14:05:28;15.17;;;11.93;;
15216;SDS011;7711;46.634;14.318;2022-12-29T14:07:57;20.17;;;12.10;;
15216;SDS011;7711;46.634;14.318;2022-12-29T14:10:27;16.53;;;11.60;;
15216;SDS011;7711;46.634;14.318;2022-12-29T14:13:02;18.10;;;12.87;;
15216;SDS011;7711;46.634;14.318;2022-12-29T14:15:31;17.87;;;12.73;;
15216;SDS011;7711;46.634;14.318;2022-12-29T14:18:10;16.23;;;12.27;;
15216;SDS011;7711;46.634;14.318;2022-12-29T14:20:46;17.30;;;13.03;;
15216;SDS011;7711;46.634;14.318;2022-12-29T14:23:26;18.43;;;13.50;;
15216;SDS011;7711;46.634;14.318;2022-12-29T14:26:09;22.17;;;15.10;;
15216;SDS011;7711;46.634;14.318;2022-12-29T14:28:40;21.50;;;14.53;;
15216;SDS011;7711;46.634;14.318;2022-12-29T14:34:15;22.30;;;15.10;;
15216;SDS011;7711;46.634;14.318;2022-12-29T14:36:56;19.63;;;13.37;;
15216;SDS011;7711;46.634;14.318;2022-12-29T14:39:35;19.13;;;13.70;;
15216;SDS011;7711;46.634;14.318;2022-12-29T14:42:05;29.27;;;23.30;;
15216;SDS011;7711;46.634;14.318;2022-12-29T14:44:46;48.17;;;43.17;;
15216;SDS011;7711;46.634;14.318;2022-12-29T14:47:16;27.87;;;22.43;;
15216;SDS011;7711;46.634;14.318;2022-12-29T14:49:46;21.33;;;15.90;;
15216;SDS011;7711;46.634;14.318;2022-12-29T14:52:15;20.90;;;15.57;;
15216;SDS011;7711;46.634;14.318;2022-12-29T14:54:49;40.00;;;34.30;;
15216;SDS011;7711;46.634;14.318;2022-12-29T15:00:16;26.23;;;16.50;;
15216;SDS011;7711;46.634;14.318;2022-12-29T15:02:46;30.93;;;16.73;;
15216;SDS011;7711;46.634;14.318;2022-12-29T15:05:27;23.90;;;15.53;;